sensor_id;sensor_type;location;lat;lon;timestamp;pressure;altitude;pressure_sealevel;temperature;humidity
63901;BME280;50538;53.482;10.294;2023-02-18T00:05:45;101183.75;;;6.70;85.74
63901;BME280;50538;53.482;10.294;2023-02-18T00:15:46;101187.25;;;6.71;86.14
63901;BME280;50538;53.482;10.294;2023-02-18T00:25:46;101185.31;;;6.73;86.64
63901;BME280;50538;53.482;10.294;2023-02-18T00:35:47;101199.34;;;6.73;87.09
63901;BME280;50538;53.482;10.294;2023-02-18T00:45:47;101199.22;;;6.75;87.52
63901;BME280;50538;53.482;10.294;2023-02-18T00:55:48;101198.63;;;6.71;87.12
63901;BME280;50538;53.482;10.294;2023-02-18T01:05:49;101209.72;;;6.65;86.72
63901;BME280;50538;53.482;10.294;2023-02-18T01:15:49;101211.06;;;6.59;87.15
63901;BME280;50538;53.482;10.294;2023-02-18T01:25:50;101210.44;;;6.56;87.31
63901;BME280;50538;53.482;10.294;2023-02-18T01:35:51;101211.50;;;6.44;87.46
63901;BME280;50538;53.482;10.294;2023-02-18T01:46:03;101207.31;;;6.41;87.66
63901;BME280;50538;53.482;10.294;2023-02-18T01:56:07;101197.63;;;6.30;88.51
63901;BME280;50538;53.482;10.294;2023-02-18T02:06:16;101191.13;;;6.14;89.21
63901;BME280;50538;53.482;10.294;2023-02-18T02:16:28;101194.25;;;6.08;89.90
63901;BME280;50538;53.482;10.294;2023-02-18T02:37:05;101180.59;;;6.02;89.97
63901;BME280;50538;53.482;10.294;2023-02-18T02:47:13;101163.81;;;6.04;89.78
63901;BME280;50538;53.482;10.294;2023-02-18T03:17:29;101151.81;;;6.11;88.93
63901;BME280;50538;53.482;10.294;2023-02-18T03:27:37;101149.75;;;6.14;88.65
63901;BME280;50538;53.482;10.294;2023-02-18T03:38:01;101143.41;;;6.17;89.31
63901;BME280;50538;53.482;10.294;2023-02-18T03:48:03;101148.16;;;6.23;89.11
63901;BME280;50538;53.482;10.294;2023-02-18T03:58:04;101162.38;;;6.31;87.90
63901;BME280;50538;53.482;10.294;2023-02-18T04:08:04;101161.44;;;6.32;87.81
63901;BME280;50538;53.482;10.294;2023-02-18T04:18:05;101157.31;;;6.40;86.79
63901;BME280;50538;53.482;10.294;2023-02-18T04:28:05;101138.59;;;6.43;87.17
63901;BME280;50538;53.482;10.294;2023-02-18T04:38:07;101110.53;;;6.42;87.54
63901;BME280;50538;53.482;10.294;2023-02-18T04:48:07;101109.84;;;6.40;88.15
63901;BME280;50538;53.482;10.294;2023-02-18T04:58:07;101100.06;;;6.30;89.03
63901;BME280;50538;53.482;10.294;2023-02-18T05:08:09;101098.06;;;6.23;89.99
63901;BME280;50538;53.482;10.294;2023-02-18T05:18:10;101090.53;;;6.18;90.40
63901;BME280;50538;53.482;10.294;2023-02-18T05:28:10;101074.00;;;6.16;91.40
63901;BME280;50538;53.482;10.294;2023-02-18T05:38:11;101071.63;;;6.13;93.28
63901;BME280;50538;53.482;10.294;2023-02-18T05:48:11;101071.88;;;6.10;94.78
63901;BME280;50538;53.482;10.294;2023-02-18T05:58:11;101050.47;;;6.04;96.26
63901;BME280;50538;53.482;10.294;2023-02-18T06:08:12;101065.84;;;5.98;97.76
63901;BME280;50538;53.482;10.294;2023-02-18T06:18:13;101047.06;;;5.92;98.42
63901;BME280;50538;53.482;10.294;2023-02-18T06:28:13;101031.25;;;5.92;99.62
63901;BME280;50538;53.482;10.294;2023-02-18T06:38:13;100995.63;;;5.88;99.97
63901;BME280;50538;53.482;10.294;2023-02-18T06:48:14;100994.19;;;5.84;100.00
63901;BME280;50538;53.482;10.294;2023-02-18T06:58:15;100971.31;;;5.84;100.00
63901;BME280;50538;53.482;10.294;2023-02-18T07:08:17;100952.63;;;5.87;100.00
63901;BME280;50538;53.482;10.294;2023-02-18T07:18:18;100932.50;;;5.86;100.00
63901;BME280;50538;53.482;10.294;2023-02-18T07:28:18;100914.75;;;5.88;100.00
63901;BME280;50538;53.482;10.294;2023-02-18T07:38:18;100896.44;;;5.87;100.00
63901;BME280;50538;53.482;10.294;2023-02-18T07:48:19;100863.28;;;5.94;100.00
63901;BME280;50538;53.482;10.294;2023-02-18T07:58:27;100848.03;;;5.97;100.00
63901;BME280;50538;53.482;10.294;2023-02-18T08:08:30;100812.81;;;5.98;100.00
63901;BME280;50538;53.482;10.294;2023-02-18T08:18:30;100778.84;;;6.05;100.00
63901;BME280;50538;53.482;10.294;2023-02-18T08:28:31;100777.06;;;6.15;100.00
63901;BME280;50538;53.482;10.294;2023-02-18T08:38:31;100776.66;;;6.20;100.00
63901;BME280;50538;53.482;10.294;2023-02-18T08:48:31;100741.28;;;6.22;100.00
63901;BME280;50538;53.482;10.294;2023-02-18T08:58:32;100737.25;;;6.28;100.00
63901;BME280;50538;53.482;10.294;2023-02-18T09:08:36;100708.94;;;6.30;100.00
63901;BME280;50538;53.482;10.294;2023-02-18T09:18:36;100670.78;;;6.34;100.00
63901;BME280;50538;53.482;10.294;2023-02-18T09:28:37;100636.91;;;6.39;100.00
63901;BME280;50538;53.482;10.294;2023-02-18T09:38:37;100627.06;;;6.41;100.00
63901;BME280;50538;53.482;10.294;2023-02-18T09:48:37;100601.38;;;6.43;100.00
63901;BME280;50538;53.482;10.294;2023-02-18T09:58:38;100570.69;;;6.42;100.00
63901;BME280;50538;53.482;10.294;2023-02-18T10:08:45;100551.97;;;6.45;100.00
63901;BME280;50538;53.482;10.294;2023-02-18T10:18:52;100532.06;;;6.51;100.00
63901;BME280;50538;53.482;10.294;2023-02-18T10:28:54;100539.25;;;6.58;100.00
63901;BME280;50538;53.482;10.294;2023-02-18T10:59:32;100468.53;;;6.99;100.00
63901;BME280;50538;53.482;10.294;2023-02-18T11:09:41;100448.84;;;7.11;100.00
63901;BME280;50538;53.482;10.294;2023-02-18T11:20:19;100439.03;;;7.21;100.00
63901;BME280;50538;53.482;10.294;2023-02-18T11:30:34;100414.13;;;7.42;100.00
63901;BME280;50538;53.482;10.294;2023-02-18T11:40:36;100396.59;;;7.66;100.00
63901;BME280;50538;53.482;10.294;2023-02-18T11:50:36;100377.56;;;8.23;100.00
63901;BME280;50538;53.482;10.294;2023-02-18T12:00:46;100378.88;;;8.85;100.00
63901;BME280;50538;53.482;10.294;2023-02-18T12:10:50;100388.41;;;9.28;100.00
63901;BME280;50538;53.482;10.294;2023-02-18T12:31:47;100412.22;;;9.53;100.00
63901;BME280;50538;53.482;10.294;2023-02-18T12:52:25;100437.56;;;9.47;100.00
63901;BME280;50538;53.482;10.294;2023-02-18T13:13:16;100460.41;;;9.40;100.00
63901;BME280;50538;53.482;10.294;2023-02-18T13:23:21;100469.03;;;9.34;100.00
63901;BME280;50538;53.482;10.294;2023-02-18T13:33:37;100493.22;;;9.31;100.00
63901;BME280;50538;53.482;10.294;2023-02-18T13:43:40;100498.00;;;9.27;100.00
63901;BME280;50538;53.482;10.294;2023-02-18T13:53:42;100516.06;;;9.24;100.00
63901;BME280;50538;53.482;10.294;2023-02-18T14:13:55;100536.59;;;9.30;100.00
63901;BME280;50538;53.482;10.294;2023-02-18T14:24:12;100547.03;;;9.32;100.00
63901;BME280;50538;53.482;10.294;2023-02-18T14:44:31;100629.09;;;8.89;100.00
63901;BME280;50538;53.482;10.294;2023-02-18T14:54:35;100647.94;;;8.35;100.00
63901;BME280;50538;53.482;10.294;2023-02-18T15:04:36;100658.09;;;8.04;100.00
63901;BME280;50538;53.482;10.294;2023-02-18T15:14:40;100671.75;;;7.81;100.00
63901;BME280;50538;53.482;10.294;2023-02-18T15:24:42;100702.16;;;7.67;100.00
63901;BME280;50538;53.482;10.294;2023-02-18T15:34:43;100729.94;;;7.54;100.00
63901;BME280;50538;53.482;10.294;2023-02-18T15:44:49;100758.94;;;7.36;100.00
63901;BME280;50538;53.482;10.294;2023-02-18T15:54:51;100775.94;;;7.14;100.00
63901;BME280;50538;53.482;10.294;2023-02-18T16:04:58;100795.56;;;7.02;100.00
63901;BME280;50538;53.482;10.294;2023-02-18T16:14:59;100809.63;;;7.03;100.00
63901;BME280;50538;53.482;10.294;2023-02-18T16:35:12;100849.75;;;6.67;100.00
63901;BME280;50538;53.482;10.294;2023-02-18T16:45:13;100866.53;;;6.47;100.00
63901;BME280;50538;53.482;10.294;2023-02-18T16:55:21;100868.03;;;6.50;100.00
63901;BME280;50538;53.482;10.294;2023-02-18T17:05:28;100871.38;;;6.42;100.00
63901;BME280;50538;53.482;10.294;2023-02-18T17:15:32;100888.00;;;6.33;100.00
63901;BME280;50538;53.482;10.294;2023-02-18T17:25:36;100915.44;;;6.21;100.00
63901;BME280;50538;53.482;10.294;2023-02-18T17:35:37;100931.78;;;6.15;100.00
63901;BME280;50538;53.482;10.294;2023-02-18T17:46:04;100946.88;;;6.13;100.00
63901;BME280;50538;53.482;10.294;2023-02-18T17:56:04;100946.31;;;6.09;100.00
63901;BME280;50538;53.482;10.294;2023-02-18T18:06:18;100956.41;;;6.04;100.00
63901;BME280;50538;53.482;10.294;2023-02-18T18:16:19;100979.69;;;5.99;100.00
63901;BME280;50538;53.482;10.294;2023-02-18T18:26:19;100986.16;;;5.85;100.00
63901;BME280;50538;53.482;10.294;2023-02-18T18:36:21;101014.13;;;5.77;100.00
63901;BME280;50538;53.482;10.294;2023-02-18T18:46:23;101020.66;;;5.61;100.00
63901;BME280;50538;53.482;10.294;2023-02-18T18:56:23;101040.88;;;5.61;100.00
63901;BME280;50538;53.482;10.294;2023-02-18T19:06:23;101046.06;;;5.51;100.00
63901;BME280;50538;53.482;10.294;2023-02-18T19:16:35;101056.03;;;5.48;100.00
63901;BME280;50538;53.482;10.294;2023-02-18T19:26:36;101057.72;;;5.38;100.00
63901;BME280;50538;53.482;10.294;2023-02-18T19:36:36;101075.44;;;5.35;100.00
63901;BME280;50538;53.482;10.294;2023-02-18T19:46:37;101080.63;;;5.26;100.00
63901;BME280;50538;53.482;10.294;2023-02-18T19:56:37;101081.38;;;5.17;100.00
63901;BME280;50538;53.482;10.294;2023-02-18T20:06:37;101087.72;;;5.14;100.00
63901;BME280;50538;53.482;10.294;2023-02-18T20:16:37;101110.47;;;5.04;100.00
63901;BME280;50538;53.482;10.294;2023-02-18T20:26:38;101109.97;;;4.99;100.00
63901;BME280;50538;53.482;10.294;2023-02-18T20:36:38;101107.81;;;4.82;100.00
63901;BME280;50538;53.482;10.294;2023-02-18T20:46:38;101091.19;;;4.81;100.00
63901;BME280;50538;53.482;10.294;2023-02-18T20:56:39;101108.31;;;4.76;100.00
63901;BME280;50538;53.482;10.294;2023-02-18T21:06:39;101125.66;;;4.67;100.00
63901;BME280;50538;53.482;10.294;2023-02-18T21:16:39;101127.81;;;4.62;100.00
63901;BME280;50538;53.482;10.294;2023-02-18T21:26:40;101122.19;;;4.55;100.00
63901;BME280;50538;53.482;10.294;2023-02-18T21:36:42;101098.75;;;4.52;100.00
63901;BME280;50538;53.482;10.294;2023-02-18T21:46:42;101095.03;;;4.44;100.00
63901;BME280;50538;53.482;10.294;2023-02-18T21:56:43;101084.50;;;4.44;100.00
63901;BME280;50538;53.482;10.294;2023-02-18T22:06:43;101092.41;;;4.44;100.00
63901;BME280;50538;53.482;10.294;2023-02-18T22:16:43;101103.25;;;4.39;100.00
63901;BME280;50538;53.482;10.294;2023-02-18T22:26:44;101119.50;;;4.33;100.00
63901;BME280;50538;53.482;10.294;2023-02-18T22:36:46;101118.66;;;4.32;100.00
63901;BME280;50538;53.482;10.294;2023-02-18T22:46:46;101104.91;;;4.29;100.00
63901;BME280;50538;53.482;10.294;2023-02-18T22:56:47;101101.31;;;4.30;100.00
63901;BME280;50538;53.482;10.294;2023-02-18T23:06:48;101093.06;;;4.23;100.00
63901;BME280;50538;53.482;10.294;2023-02-18T23:16:52;101087.19;;;4.20;100.00
63901;BME280;50538;53.482;10.294;2023-02-18T23:27:13;101082.66;;;4.22;100.00
63901;BME280;50538;53.482;10.294;2023-02-18T23:37:14;101076.22;;;4.26;100.00
63901;BME280;50538;53.482;10.294;2023-02-18T23:47:14;101061.41;;;4.25;100.00
63901;BME280;50538;53.482;10.294;2023-02-18T23:57:14;101049.00;;;4.27;100.00
